Enter the Airport ICAO Code

Search by Airport or City

Current Weather

GCFV | Fuerteventura Airport

Fuerteventura, Canary Islands, Spain

Last Update 26 Minutes Ago

Partly Cloudy Sky

Temperature of 24 ºC

Moderate to Strong Winds from NorthEast

Temperature

24 ºC

Dew Point Temperature

14 ºC

Relative Humidity

53.77 %

Wind Direction

NorthEast (040º, Without Significant Variations)

Wind Velocity

31 km/h (17 kt)

Gusts

None

Visibility

Greater than 10 Kilometers

Sea Level Pressure

1020 hPa (Hectopascals)

Layers of Clouds

30% to 60% of Sky Covered from 914 mts (3000 ft) Above Ground Level.

METAR GCFV 191230Z 04017KT 9999 SCT030 24/14 Q1020

Weather Forecast

GCFV | Fuerteventura Airport

Fuerteventura, Canary Islands, Spain

Forecast valid for the next 20 Hours

From now on it is expected:

Partly Cloudy Sky

Moderate to Strong Winds from NorthEast

In 7 to 9 hours it is expected the begining of:

Light to Moderate Winds from North

Maximum Temperature

24 ºC in 1 Hour

Minimum Temperature

19 ºC in 17 Hours

TAF GCFV 190800Z 1909/2009 04018KT 9999 SCT030 TX24/1914Z TN19/2006Z BECMG 1920/1922 36008KT